Time;durP1;ratioP1;P1;durP2;ratioP2;P2;SDS_P1;SDS_P2;PMS_P1;PMS_P2;Temp;Humidity;BMP_temperature;BMP_pressure;BME280_temperature;BME280_humidity;BME280_pressure;Samples;Min_cycle;Max_cycle;Signal;HPM_P1;HPM_P2
2022/07/14 00:01:10;;;;;;;21.33;4.00;;;17.80;99.90;;;;;;5030669;28;20220;-78
2022/07/14 00:03:36;;;;;;;15.13;3.33;;;17.60;99.90;;;;;;5033003;28;20174;-78
2022/07/14 00:06:01;;;;;;;15.73;3.10;;;17.60;99.90;;;;;;5034330;28;20189;-78
2022/07/14 00:08:27;;;;;;;18.67;3.40;;;17.70;99.90;;;;;;5018826;28;20662;-78
2022/07/14 00:10:53;;;;;;;19.27;3.57;;;17.70;99.90;;;;;;5032456;28;20180;-78
2022/07/14 00:13:18;;;;;;;17.77;3.57;;;17.50;99.90;;;;;;5042852;22;20254;-81
2022/07/14 00:15:44;;;;;;;17.30;3.57;;;17.40;99.90;;;;;;5075440;28;20283;-81
2022/07/14 00:18:10;;;;;;;21.00;3.67;;;17.40;99.90;;;;;;5075828;28;20256;-81
2022/07/14 00:20:36;;;;;;;20.83;3.43;;;17.30;99.90;;;;;;5076257;28;20175;-81
2022/07/14 00:23:01;;;;;;;20.97;4.00;;;17.30;99.90;;;;;;5075798;28;20198;-81
2022/07/14 00:25:27;;;;;;;16.37;3.63;;;17.30;99.90;;;;;;5074236;28;20526;-81
2022/07/14 00:27:54;;;;;;;21.80;3.70;;;17.30;99.90;;;;;;5074662;28;20176;-81
2022/07/14 00:30:20;;;;;;;15.87;3.47;;;17.30;99.90;;;;;;5074343;28;20227;-81
2022/07/14 00:32:46;;;;;;;19.80;3.87;;;17.20;99.90;;;;;;5073224;28;20219;-80
2022/07/14 00:35:12;;;;;;;24.13;3.73;;;17.20;99.90;;;;;;5073998;28;20589;-80
2022/07/14 00:37:38;;;;;;;16.77;3.43;;;17.20;99.90;;;;;;5074507;28;20197;-80
2022/07/14 00:40:04;;;;;;;20.63;3.70;;;17.10;99.90;;;;;;5074581;28;20179;-80
2022/07/14 00:42:43;;;;;;;14.83;3.30;;;17.10;99.90;;;;;;5072752;28;20172;-80
2022/07/14 00:45:10;;;;;;;26.07;3.73;;;17.10;99.90;;;;;;5072981;28;20172;-80
2022/07/14 00:47:36;;;;;;;21.90;4.20;;;17.00;99.90;;;;;;5072986;28;20208;-80
2022/07/14 00:50:02;;;;;;;18.47;3.83;;;17.00;99.90;;;;;;5073126;28;20175;-79
2022/07/14 00:52:29;;;;;;;20.27;3.80;;;16.90;99.90;;;;;;5072979;28;20233;-79
2022/07/14 00:54:56;;;;;;;20.20;3.70;;;16.90;99.90;;;;;;5072646;28;20263;-79
2022/07/14 00:57:22;;;;;;;20.50;4.50;;;16.80;99.90;;;;;;5072815;28;20203;-79
2022/07/14 00:59:48;;;;;;;24.03;4.43;;;17.00;99.90;;;;;;5072750;28;20171;-79
2022/07/14 01:02:15;;;;;;;21.20;3.93;;;16.90;99.90;;;;;;5072599;28;20173;-79
2022/07/14 01:04:41;;;;;;;17.77;3.33;;;16.80;99.90;;;;;;5072147;28;20192;-79
2022/07/14 01:07:06;;;;;;;16.63;3.80;;;16.80;99.90;;;;;;5072577;28;20540;-79
2022/07/14 01:09:32;;;;;;;22.33;4.50;;;16.70;99.90;;;;;;5073076;28;20176;-79
2022/07/14 01:12:00;;;;;;;13.87;3.33;;;16.80;99.90;;;;;;5073292;28;20783;-79
2022/07/14 01:14:25;;;;;;;20.13;4.20;;;16.80;99.90;;;;;;5073222;28;20231;-79
2022/07/14 01:16:55;;;;;;;19.90;3.80;;;16.50;99.90;;;;;;5072823;28;20576;-79
2022/07/14 01:19:22;;;;;;;22.83;3.87;;;16.50;99.90;;;;;;5073033;28;20175;-79
2022/07/14 01:21:50;;;;;;;19.07;3.47;;;16.50;99.90;;;;;;5072763;28;20169;-80
2022/07/14 01:24:16;;;;;;;16.63;3.47;;;16.70;99.90;;;;;;5073565;28;20664;-80
2022/07/14 01:26:41;;;;;;;21.63;3.33;;;16.70;99.90;;;;;;5075401;28;20172;-80
2022/07/14 01:29:07;;;;;;;23.33;3.80;;;16.60;99.90;;;;;;5075141;28;20234;-80
2022/07/14 01:31:32;;;;;;;20.70;4.00;;;16.50;99.90;;;;;;5075059;28;20179;-80
2022/07/14 01:33:58;;;;;;;19.60;3.43;;;16.50;99.90;;;;;;5074634;28;20231;-80
2022/07/14 01:36:24;;;;;;;22.87;3.60;;;16.60;99.90;;;;;;5074804;28;20202;-80
2022/07/14 01:38:52;;;;;;;20.33;3.70;;;16.50;99.90;;;;;;5074966;28;20259;-80
2022/07/14 01:41:19;;;;;;;22.80;3.60;;;16.50;99.90;;;;;;5074682;28;20176;-80
2022/07/14 01:43:44;;;;;;;19.87;3.83;;;16.50;99.90;;;;;;5075261;28;20216;-81
2022/07/14 01:46:10;;;;;;;16.30;3.50;;;16.50;99.90;;;;;;5075453;28;20581;-80
2022/07/14 01:48:36;;;;;;;20.87;3.80;;;16.40;99.90;;;;;;5076424;28;20648;-80
2022/07/14 01:51:01;;;;;;;21.30;3.43;;;16.30;99.90;;;;;;5075285;28;20535;-80
2022/07/14 01:53:27;;;;;;;26.43;4.43;;;16.40;99.90;;;;;;5075305;28;20631;-80
2022/07/14 01:55:53;;;;;;;20.60;3.77;;;16.40;99.90;;;;;;5074838;28;20176;-80
2022/07/14 01:58:21;;;;;;;18.10;3.50;;;16.20;99.90;;;;;;5073916;28;20200;-80
2022/07/14 02:01:39;;;;;;;16.60;3.70;;;16.30;99.90;;;;;;5073466;28;20237;-80
2022/07/14 02:03:33;;;;;;;14.87;3.50;;;16.10;99.90;;;;;;5074586;28;20190;-80
2022/07/14 02:06:00;;;;;;;23.63;4.70;;;16.10;99.90;;;;;;5073958;28;20639;-80
2022/07/14 02:08:26;;;;;;;17.43;3.57;;;16.20;99.90;;;;;;5073575;28;20177;-80
2022/07/14 02:13:36;;;;;;;18.40;4.00;;;16.00;99.90;;;;;;5075622;28;20230;-80
2022/07/14 02:16:01;;;;;;;21.73;4.33;;;16.10;99.90;;;;;;5074931;28;20625;-80
2022/07/14 02:18:27;;;;;;;16.93;3.37;;;16.00;99.90;;;;;;5077715;28;20176;-80
2022/07/14 02:20:53;;;;;;;16.47;3.60;;;16.00;99.90;;;;;;5077357;28;20183;-81
2022/07/14 02:23:18;;;;;;;17.47;4.03;;;15.80;99.90;;;;;;5077336;28;20189;-81
2022/07/14 02:25:44;;;;;;;15.63;3.40;;;16.00;99.90;;;;;;5074858;28;20532;-80
2022/07/14 02:28:09;;;;;;;19.23;3.77;;;15.90;99.90;;;;;;5074639;28;20230;-79
2022/07/14 02:30:35;;;;;;;20.23;3.30;;;15.90;99.90;;;;;;5074707;28;20169;-80
2022/07/14 02:33:01;;;;;;;23.77;3.53;;;15.80;99.90;;;;;;5073918;28;20247;-80
2022/07/14 02:35:27;;;;;;;20.67;3.50;;;15.60;99.90;;;;;;5074208;28;20184;-79
2022/07/14 02:37:52;;;;;;;15.07;3.47;;;15.80;99.90;;;;;;5074234;28;20835;-80
2022/07/14 02:40:18;;;;;;;18.27;3.30;;;15.90;99.90;;;;;;5074301;28;20169;-80
2022/07/14 02:42:44;;;;;;;24.10;3.93;;;15.60;99.90;;;;;;5073386;28;20229;-79
2022/07/14 02:45:10;;;;;;;17.57;3.43;;;15.50;99.90;;;;;;5074066;28;20195;-79
2022/07/14 02:47:35;;;;;;;23.07;3.67;;;15.60;99.90;;;;;;5073940;28;20176;-79
2022/07/14 02:50:01;;;;;;;17.60;3.60;;;15.50;99.90;;;;;;5074021;28;20177;-79
2022/07/14 02:52:26;;;;;;;20.33;4.03;;;15.50;99.90;;;;;;5074186;28;20826;-79
2022/07/14 02:54:52;;;;;;;20.57;3.67;;;15.60;99.90;;;;;;5073675;28;20285;-79
2022/07/14 02:57:18;;;;;;;19.10;3.93;;;15.50;99.90;;;;;;5073488;28;20207;-79
2022/07/14 02:59:43;;;;;;;21.10;3.67;;;15.60;99.90;;;;;;5073586;28;20663;-79
2022/07/14 03:02:09;;;;;;;15.03;4.03;;;15.50;99.90;;;;;;5073402;28;20681;-79
2022/07/14 03:04:36;;;;;;;18.47;3.87;;;15.40;99.90;;;;;;5073166;28;20193;-79
2022/07/14 03:07:01;;;;;;;16.13;3.70;;;15.30;99.90;;;;;;5073212;28;20514;-79
2022/07/14 03:09:27;;;;;;;21.93;3.57;;;15.20;99.90;;;;;;5073035;28;20173;-78
2022/07/14 03:11:53;;;;;;;21.87;3.43;;;15.20;99.90;;;;;;5072866;28;20810;-79
2022/07/14 03:14:19;;;;;;;18.73;3.77;;;15.20;99.90;;;;;;5072936;28;20262;-79
2022/07/14 03:16:44;;;;;;;18.93;3.67;;;15.00;99.90;;;;;;5072724;28;20205;-79
2022/07/14 03:19:10;;;;;;;20.77;4.57;;;15.00;99.90;;;;;;5072590;28;20661;-78
2022/07/14 03:21:36;;;;;;;21.47;3.57;;;15.10;99.90;;;;;;5072685;28;20641;-79
2022/07/14 03:24:02;;;;;;;21.43;4.03;;;15.10;99.90;;;;;;5073963;28;20846;-79
2022/07/14 03:26:30;;;;;;;22.00;3.67;;;15.10;99.90;;;;;;5075072;28;20180;-79
2022/07/14 03:28:56;;;;;;;19.30;3.93;;;15.10;99.90;;;;;;5075011;28;20177;-79
2022/07/14 03:31:21;;;;;;;21.33;3.87;;;15.10;99.90;;;;;;5074992;28;20188;-79
2022/07/14 03:33:47;;;;;;;21.43;3.90;;;14.80;99.90;;;;;;5074958;28;20196;-79
2022/07/14 03:36:13;;;;;;;14.73;3.93;;;14.90;99.90;;;;;;5075151;28;20301;-79
2022/07/14 03:38:38;;;;;;;19.77;4.10;;;14.80;99.90;;;;;;5075121;28;20268;-79
2022/07/14 03:41:07;;;;;;;20.67;3.70;;;15.00;99.90;;;;;;5074693;28;20203;-79
2022/07/14 03:43:33;;;;;;;18.13;3.80;;;14.90;99.90;;;;;;5076074;28;20189;-79
2022/07/14 03:45:59;;;;;;;23.20;4.20;;;14.90;99.90;;;;;;5075441;28;20245;-79
2022/07/14 03:48:25;;;;;;;14.67;3.73;;;14.90;99.90;;;;;;5075045;28;20200;-79
2022/07/14 03:50:50;;;;;;;17.07;3.30;;;14.80;99.90;;;;;;5075385;28;20180;-79
2022/07/14 03:53:16;;;;;;;18.13;4.60;;;14.90;99.90;;;;;;5075323;28;20627;-79
2022/07/14 03:55:42;;;;;;;20.73;4.27;;;14.80;99.90;;;;;;5075281;28;20656;-79
2022/07/14 03:58:08;;;;;;;10.93;3.50;;;14.70;99.90;;;;;;5075348;28;20664;-79
2022/07/14 04:00:34;;;;;;;23.17;4.27;;;14.80;99.90;;;;;;5075343;28;20169;-79
2022/07/14 04:03:00;;;;;;;22.90;3.23;;;14.80;99.90;;;;;;5074350;28;20200;-79
2022/07/14 04:05:28;;;;;;;19.77;4.00;;;14.70;99.90;;;;;;5075946;28;20251;-79
2022/07/14 04:07:54;;;;;;;17.43;3.77;;;14.70;99.90;;;;;;5074342;28;20176;-78
2022/07/14 04:10:20;;;;;;;13.67;4.17;;;14.80;99.90;;;;;;5074669;28;20187;-79
2022/07/14 04:12:46;;;;;;;21.67;4.30;;;14.80;99.90;;;;;;5075416;28;20204;-80
2022/07/14 04:15:12;;;;;;;18.47;3.80;;;14.90;99.90;;;;;;5075199;28;20608;-81
2022/07/14 04:17:38;;;;;;;20.90;3.77;;;14.90;99.90;;;;;;5075136;28;20230;-80
2022/07/14 04:20:04;;;;;;;20.03;3.80;;;15.00;99.90;;;;;;5075595;28;20177;-79
2022/07/14 04:22:30;;;;;;;19.37;3.60;;;15.10;99.90;;;;;;5074593;28;20174;-79
2022/07/14 04:24:56;;;;;;;19.97;4.10;;;15.00;99.90;;;;;;5074782;28;20199;-79
2022/07/14 04:27:21;;;;;;;15.93;3.40;;;15.00;99.90;;;;;;5074347;28;20183;-79
2022/07/14 04:29:47;;;;;;;24.63;3.63;;;15.00;99.90;;;;;;5074840;28;20203;-79
2022/07/14 04:32:13;;;;;;;28.03;4.10;;;15.10;99.90;;;;;;5074108;28;20181;-79
2022/07/14 04:34:39;;;;;;;21.20;3.70;;;15.10;99.90;;;;;;5073914;28;20200;-79
2022/07/14 04:37:05;;;;;;;18.50;3.90;;;15.20;99.90;;;;;;5073927;28;20291;-79
2022/07/14 04:39:31;;;;;;;17.90;3.60;;;15.00;99.90;;;;;;5075516;28;20196;-81
2022/07/14 04:41:56;;;;;;;19.03;3.90;;;15.10;99.90;;;;;;5075045;28;20204;-79
2022/07/14 04:44:22;;;;;;;20.90;3.73;;;15.20;99.90;;;;;;5073589;28;20194;-80
2022/07/14 04:46:48;;;;;;;21.30;3.90;;;15.30;99.90;;;;;;5073718;28;20173;-79
2022/07/14 04:52:03;;;;;;;15.63;2.97;;;15.60;99.90;;;;;;5075542;28;20237;-79
2022/07/14 04:54:34;;;;;;;24.03;3.13;;;16.00;99.90;;;;;;5074223;28;20195;-79
2022/07/14 04:57:01;;;;;;;13.40;3.20;;;16.10;99.90;;;;;;5074545;28;20628;-79
2022/07/14 04:59:27;;;;;;;16.57;3.00;;;16.50;99.90;;;;;;5074933;28;20164;-79
2022/07/14 05:01:54;;;;;;;15.27;3.30;;;16.70;99.90;;;;;;5075047;28;20233;-80
2022/07/14 05:04:20;;;;;;;11.93;3.03;;;17.30;99.90;;;;;;5074108;28;20224;-79
2022/07/14 05:06:46;;;;;;;12.48;2.72;;;17.20;99.90;;;;;;5074823;28;20226;-79
2022/07/14 05:09:15;;;;;;;17.73;3.20;;;17.00;99.90;;;;;;5075663;28;20245;-80
2022/07/14 05:11:41;;;;;;;13.77;2.90;;;16.70;99.90;;;;;;5075177;28;20177;-80
2022/07/14 05:14:07;;;;;;;20.45;3.40;;;16.80;99.90;;;;;;5074153;28;20208;-80
2022/07/14 05:16:32;;;;;;;16.25;2.92;;;16.80;99.90;;;;;;5074006;28;20199;-81
2022/07/14 05:18:58;;;;;;;20.33;3.40;;;16.90;99.90;;;;;;5073825;28;20168;-80
2022/07/14 05:21:24;;;;;;;17.67;3.70;;;16.70;99.90;;;;;;5073436;28;20172;-80
2022/07/14 05:23:50;;;;;;;13.35;2.92;;;17.10;99.90;;;;;;5073100;28;20234;-81
2022/07/14 05:26:17;;;;;;;12.90;2.70;;;17.40;99.90;;;;;;5074549;28;20204;-81
2022/07/14 05:28:43;;;;;;;18.98;2.90;;;17.70;99.90;;;;;;5075013;28;20173;-80
2022/07/14 05:31:09;;;;;;;14.00;3.38;;;17.90;99.90;;;;;;5075411;28;20229;-81
2022/07/14 05:33:35;;;;;;;16.42;3.28;;;17.70;99.90;;;;;;5075561;28;20223;-82
2022/07/14 05:36:02;;;;;;;17.90;3.53;;;17.40;99.90;;;;;;5077044;28;20172;-81
2022/07/14 05:38:28;;;;;;;13.55;3.20;;;17.30;99.90;;;;;;5077612;28;20175;-82
2022/07/14 05:40:54;;;;;;;17.20;4.22;;;17.60;99.90;;;;;;5077246;28;20180;-79
2022/07/14 05:43:20;;;;;;;13.57;2.92;;;17.70;99.90;;;;;;5074370;28;20185;-80
2022/07/14 05:45:46;;;;;;;8.90;3.28;;;18.00;99.90;;;;;;5074365;28;20810;-79
2022/07/14 05:48:12;;;;;;;11.82;3.03;;;18.20;99.90;;;;;;5074613;28;20556;-79
2022/07/14 05:50:37;;;;;;;18.10;3.47;;;18.00;99.90;;;;;;5073970;28;20267;-79
2022/07/14 05:53:03;;;;;;;13.05;3.25;;;18.30;99.90;;;;;;5078294;28;20188;-80
2022/07/14 05:55:29;;;;;;;18.30;3.08;;;18.60;99.90;;;;;;5079012;28;20175;-81
2022/07/14 05:57:55;;;;;;;21.27;3.55;;;18.60;99.90;;;;;;5078724;28;20234;-81
2022/07/14 06:00:21;;;;;;;15.82;3.22;;;18.90;99.90;;;;;;5090225;23;20697;-80
2022/07/14 06:02:46;;;;;;;11.18;3.28;;;19.30;99.90;;;;;;5075980;28;20173;-80
2022/07/14 06:05:12;;;;;;;16.13;3.33;;;19.80;99.90;;;;;;5076134;28;20224;-81
2022/07/14 06:07:38;;;;;;;12.90;2.80;;;19.70;99.90;;;;;;5077899;28;20654;-82
2022/07/14 06:10:05;;;;;;;11.55;2.67;;;19.90;99.90;;;;;;5075791;28;20196;-80
2022/07/14 06:12:32;;;;;;;11.68;3.03;;;19.80;99.90;;;;;;5074833;28;20223;-82
2022/07/14 06:15:01;;;;;;;15.07;3.05;;;20.00;99.90;;;;;;5074897;28;20284;-77
2022/07/14 06:17:27;;;;;;;10.30;2.80;;;20.30;99.90;;;;;;5074137;28;20189;-81
2022/07/14 06:19:53;;;;;;;12.77;3.13;;;20.10;99.90;;;;;;5074031;28;20592;-80
2022/07/14 06:22:18;;;;;;;13.77;2.85;;;20.20;99.90;;;;;;5074833;28;20585;-80
2022/07/14 06:24:44;;;;;;;14.82;2.90;;;20.50;99.90;;;;;;5073812;28;20266;-80
2022/07/14 06:27:10;;;;;;;11.88;2.78;;;20.70;99.90;;;;;;5075003;28;20177;-79
2022/07/14 06:29:35;;;;;;;14.63;2.80;;;20.30;99.90;;;;;;5075785;28;20581;-78
2022/07/14 06:32:03;;;;;;;13.80;3.17;;;20.90;99.90;;;;;;5075924;28;20227;-79
2022/07/14 06:34:29;;;;;;;7.38;2.70;;;21.40;99.90;;;;;;5076772;28;20728;-78
2022/07/14 06:36:55;;;;;;;10.43;2.60;;;21.40;99.90;;;;;;5076718;28;20212;-81
2022/07/14 06:39:20;;;;;;;9.88;2.30;;;21.60;99.90;;;;;;5074716;28;20210;-79
2022/07/14 06:41:46;;;;;;;11.73;2.95;;;21.10;99.90;;;;;;5074674;28;20254;-78
2022/07/14 06:44:12;;;;;;;15.52;2.67;;;21.60;99.90;;;;;;5074361;28;20204;-80
2022/07/14 06:46:38;;;;;;;6.90;2.20;;;21.50;99.90;;;;;;5074152;28;20177;-79
2022/07/14 06:49:04;;;;;;;9.80;2.35;;;22.20;99.90;;;;;;5074158;28;20180;-79
2022/07/14 06:51:30;;;;;;;6.55;1.73;;;22.20;99.80;;;;;;5074030;28;20176;-79
2022/07/14 06:53:56;;;;;;;6.88;2.42;;;22.30;98.30;;;;;;5073266;28;20235;-77
2022/07/14 06:56:21;;;;;;;8.35;2.08;;;22.40;97.50;;;;;;5074067;28;20201;-78
2022/07/14 06:58:47;;;;;;;8.18;2.00;;;21.90;96.20;;;;;;5074808;28;20260;-79
2022/07/14 07:01:13;;;;;;;8.93;2.10;;;22.20;97.90;;;;;;5075099;28;20187;-79
2022/07/14 07:03:38;;;;;;;9.65;2.35;;;22.90;97.30;;;;;;5073400;28;20196;-78
2022/07/14 07:08:48;;;;;;;6.55;2.40;;;22.80;96.70;;;;;;5074798;28;20234;-79
2022/07/14 07:11:14;;;;;;;8.95;2.50;;;22.20;97.60;;;;;;5074723;28;20172;-78
2022/07/14 07:13:40;;;;;;;7.57;2.03;;;22.20;97.40;;;;;;5072444;28;20192;-75
2022/07/14 07:16:07;;;;;;;9.60;2.03;;;22.70;96.80;;;;;;5074958;28;20631;-78
2022/07/14 07:18:34;;;;;;;13.20;2.17;;;23.40;96.10;;;;;;5074623;28;20173;-78
2022/07/14 07:21:00;;;;;;;7.72;1.70;;;23.10;94.90;;;;;;5074708;28;20169;-78
2022/07/14 07:23:25;;;;;;;9.63;2.22;;;23.00;95.40;;;;;;5074593;28;20188;-78
2022/07/14 07:25:52;;;;;;;6.57;1.70;;;22.40;96.20;;;;;;5073435;28;20274;-78
2022/07/14 07:28:18;;;;;;;6.93;1.98;;;22.40;95.70;;;;;;5074102;28;20172;-78
2022/07/14 07:30:43;;;;;;;8.27;1.80;;;22.80;95.20;;;;;;5074514;28;20169;-77
2022/07/14 07:33:09;;;;;;;9.07;1.80;;;22.90;95.00;;;;;;5073377;28;20199;-78
2022/07/14 07:35:35;;;;;;;6.15;1.95;;;22.50;95.80;;;;;;5074257;28;20183;-78
2022/07/14 07:38:01;;;;;;;8.48;1.95;;;22.60;94.60;;;;;;5073750;28;20192;-78
2022/07/14 07:40:27;;;;;;;10.88;1.80;;;22.20;95.10;;;;;;5072620;28;20173;-78
2022/07/14 07:42:53;;;;;;;5.50;1.80;;;22.30;95.00;;;;;;5072254;28;20175;-78
2022/07/14 07:45:19;;;;;;;11.55;1.85;;;22.70;94.40;;;;;;5073137;28;20172;-78
2022/07/14 07:47:44;;;;;;;8.88;1.88;;;23.00;94.00;;;;;;5072058;28;20207;-76
2022/07/14 07:50:11;;;;;;;6.00;1.70;;;23.70;93.00;;;;;;5071575;28;20173;-76
2022/07/14 07:52:38;;;;;;;7.85;1.90;;;23.90;93.50;;;;;;5071927;28;20176;-78
2022/07/14 07:55:09;;;;;;;6.57;1.90;;;23.00;93.50;;;;;;5071757;28;20211;-78
2022/07/14 07:57:35;;;;;;;8.75;1.85;;;24.30;92.50;;;;;;5073159;28;20200;-77
2022/07/14 08:00:01;;;;;;;7.38;1.95;;;24.30;91.80;;;;;;5073809;28;20176;-78
2022/07/14 08:02:27;;;;;;;6.07;2.03;;;24.30;92.70;;;;;;5073284;28;20165;-79
2022/07/14 08:04:53;;;;;;;5.40;1.70;;;23.70;91.70;;;;;;5072781;28;20651;-76
2022/07/14 08:07:18;;;;;;;10.10;1.70;;;24.20;91.80;;;;;;5073655;28;20169;-79
2022/07/14 08:09:45;;;;;;;9.10;1.83;;;24.30;92.10;;;;;;5073925;28;20207;-79
2022/07/14 08:12:10;;;;;;;11.93;2.38;;;23.20;92.20;;;;;;5073129;28;20184;-77
2022/07/14 08:14:48;;;;;;;10.30;2.58;;;22.90;93.70;;;;;;5073076;28;20192;-79
2022/07/14 08:17:14;;;;;;;6.97;1.73;;;23.60;92.30;;;;;;5073220;28;20227;-78
2022/07/14 08:19:40;;;;;;;5.45;1.70;;;23.70;91.70;;;;;;5073184;28;20180;-79
2022/07/14 08:22:05;;;;;;;9.68;1.65;;;23.80;90.90;;;;;;5073989;28;20169;-78
2022/07/14 08:24:31;;;;;;;6.80;1.52;;;23.80;90.80;;;;;;5073113;28;20219;-78
2022/07/14 08:26:57;;;;;;;6.32;1.80;;;24.20;90.10;;;;;;5074189;28;20173;-77
2022/07/14 08:29:23;;;;;;;7.72;1.75;;;23.80;91.10;;;;;;5072424;28;20180;-79
2022/07/14 08:31:49;;;;;;;8.05;1.73;;;23.60;91.20;;;;;;5072979;28;20172;-78
2022/07/14 08:34:15;;;;;;;7.55;1.75;;;24.40;90.70;;;;;;5074249;28;20198;-79
2022/07/14 08:36:41;;;;;;;7.57;1.95;;;24.50;90.10;;;;;;5073209;28;20618;-78
2022/07/14 08:39:08;;;;;;;8.15;1.77;;;24.20;90.40;;;;;;5073249;28;20531;-78
2022/07/14 08:41:35;;;;;;;9.85;2.25;;;24.30;88.60;;;;;;5072633;28;20179;-77
2022/07/14 08:44:02;;;;;;;6.85;1.90;;;24.30;88.90;;;;;;5072690;28;20192;-77
2022/07/14 08:46:28;;;;;;;6.10;1.80;;;24.20;90.30;;;;;;5072554;28;20169;-76
2022/07/14 08:48:55;;;;;;;7.57;1.70;;;24.00;89.30;;;;;;5072851;28;20176;-79
2022/07/14 08:51:21;;;;;;;12.02;1.77;;;25.10;90.20;;;;;;5073275;28;20237;-78
2022/07/14 08:53:47;;;;;;;9.90;2.00;;;24.60;88.90;;;;;;5072302;28;20192;-77
2022/07/14 08:56:13;;;;;;;8.10;2.00;;;24.70;89.10;;;;;;5070986;28;20176;-78
2022/07/14 08:58:40;;;;;;;5.57;1.50;;;25.10;88.60;;;;;;5072844;28;20276;-80
2022/07/14 09:01:06;;;;;;;5.43;1.40;;;24.90;87.30;;;;;;5072546;28;20712;-77
2022/07/14 09:03:32;;;;;;;7.93;2.15;;;24.70;89.00;;;;;;5072716;28;20193;-78
2022/07/14 09:05:58;;;;;;;6.05;1.55;;;25.60;87.10;;;;;;5072106;28;20854;-79
2022/07/14 09:08:23;;;;;;;6.88;1.75;;;24.90;88.70;;;;;;5071503;28;20172;-78
2022/07/14 09:10:49;;;;;;;9.25;2.05;;;24.70;87.60;;;;;;5073421;28;20173;-76
2022/07/14 09:13:19;;;;;;;2.35;1.55;;;25.50;88.30;;;;;;5073315;28;20196;-78
2022/07/14 09:15:46;;;;;;;7.43;2.33;;;25.20;85.30;;;;;;5073580;28;20275;-78
2022/07/14 09:18:22;;;;;;;10.00;2.10;;;25.10;87.30;;;;;;5072874;28;20196;-78
2022/07/14 09:20:49;;;;;;;12.90;2.05;;;26.50;86.10;;;;;;5071861;28;20249;-77
2022/07/14 09:23:14;;;;;;;6.20;1.90;;;25.80;85.40;;;;;;5071859;28;20191;-79
2022/07/14 09:25:40;;;;;;;7.22;1.52;;;24.90;86.60;;;;;;5074635;28;20169;-78
2022/07/14 09:28:09;;;;;;;14.43;2.28;;;26.10;84.80;;;;;;5080555;28;20178;-79
2022/07/14 09:30:35;;;;;;;8.80;2.10;;;25.60;86.30;;;;;;5076401;28;20255;-79
2022/07/14 09:33:03;;;;;;;8.95;1.85;;;26.30;85.80;;;;;;5078840;28;20237;-78
2022/07/14 09:35:34;;;;;;;8.88;1.90;;;25.80;84.50;;;;;;5079463;28;20766;-78
2022/07/14 09:38:23;;;;;;;9.48;1.90;;;25.90;84.60;;;;;;5079293;28;20196;-78
2022/07/14 09:40:50;;;;;;;7.07;1.65;;;26.10;83.30;;;;;;5075676;28;20569;-78
2022/07/14 09:43:17;;;;;;;5.85;1.55;;;25.70;82.90;;;;;;5079787;28;20193;-79
2022/07/14 09:45:50;;;;;;;7.57;2.00;;;26.80;82.70;;;;;;5080975;28;20169;-80
2022/07/14 09:48:19;;;;;;;9.82;2.05;;;25.50;83.10;;;;;;5077863;28;20212;-79
2022/07/14 09:50:57;;;;;;;8.77;1.77;;;23.90;83.00;;;;;;5075149;28;20177;-79
2022/07/14 09:53:22;;;;;;;7.82;1.70;;;24.00;84.30;;;;;;5073729;28;20195;-80
2022/07/14 09:55:58;;;;;;;5.82;1.70;;;25.40;82.80;;;;;;5079000;28;20173;-80
2022/07/14 09:58:40;;;;;;;5.13;1.63;;;26.40;81.70;;;;;;5080075;28;20203;-80
2022/07/14 10:01:11;;;;;;;6.43;1.77;;;26.10;80.80;;;;;;5079375;28;20188;-79
2022/07/14 10:03:42;;;;;;;7.00;1.77;;;26.20;81.70;;;;;;5080877;28;20200;-80
2022/07/14 10:06:08;;;;;;;10.63;1.95;;;26.40;80.80;;;;;;5080716;28;20176;-80
2022/07/14 10:08:35;;;;;;;5.38;1.60;;;26.80;81.60;;;;;;5080437;28;20536;-79
2022/07/14 10:11:05;;;;;;;6.80;1.52;;;26.70;79.70;;;;;;5080717;28;20179;-81
2022/07/14 10:13:31;;;;;;;3.35;1.40;;;26.20;79.40;;;;;;5082123;28;20292;-78
2022/07/14 10:15:57;;;;;;;3.80;1.52;;;26.00;78.90;;;;;;5079960;28;20176;-80
2022/07/14 10:18:25;;;;;;;7.07;1.90;;;27.00;79.30;;;;;;5079161;28;20553;-79
2022/07/14 10:20:54;;;;;;;5.30;1.83;;;26.80;78.30;;;;;;5079590;28;20620;-81
2022/07/14 10:23:21;;;;;;;9.20;1.60;;;27.00;77.00;;;;;;5080825;28;20275;-78
2022/07/14 10:25:55;;;;;;;3.75;1.55;;;26.40;78.40;;;;;;5079606;28;20251;-79
2022/07/14 10:28:21;;;;;;;4.57;1.73;;;26.00;79.20;;;;;;5080978;28;20173;-80
2022/07/14 10:31:08;;;;;;;6.65;1.83;;;25.80;80.00;;;;;;5079825;28;20637;-80
2022/07/14 10:34:02;;;;;;;23.92;2.10;;;26.50;81.80;;;;;;5078235;28;20549;-78
2022/07/14 10:36:45;;;;;;;8.63;2.15;;;26.80;80.70;;;;;;5078438;28;20214;-78
2022/07/14 10:39:29;;;;;;;6.85;1.60;;;26.60;78.40;;;;;;5076274;28;20204;-77
2022/07/14 10:42:10;;;;;;;4.05;1.30;;;26.60;80.10;;;;;;5073939;28;20176;-80
2022/07/14 10:44:36;;;;;;;6.60;1.60;;;28.10;75.90;;;;;;5074582;28;20188;-79
2022/07/14 10:47:11;;;;;;;3.53;1.80;;;28.40;74.20;;;;;;5076775;28;20583;-81
2022/07/14 10:50:09;;;;;;;4.50;1.85;;;28.10;76.80;;;;;;5077208;28;20264;-80
2022/07/14 10:52:49;;;;;;;6.88;1.80;;;27.30;77.70;;;;;;5075600;28;20180;-78
2022/07/14 10:55:22;;;;;;;6.18;1.88;;;27.00;77.60;;;;;;5074485;28;20179;-80
2022/07/14 10:58:04;;;;;;;5.07;1.55;;;27.60;76.50;;;;;;5070336;28;20200;-80
2022/07/14 11:03:33;;;;;;;4.22;1.52;;;27.70;74.40;;;;;;5073697;28;20241;-79
2022/07/14 11:06:08;;;;;;;4.80;1.50;;;27.10;75.90;;;;;;5074529;28;20164;-80
2022/07/14 11:08:41;;;;;;;5.13;1.60;;;26.90;75.80;;;;;;5075159;28;20172;-78
2022/07/14 11:11:18;;;;;;;5.43;1.42;;;27.20;75.20;;;;;;5072252;28;20238;-82
2022/07/14 11:14:23;;;;;;;6.32;1.45;;;27.40;74.40;;;;;;5072026;28;20252;-81
2022/07/14 11:16:50;;;;;;;6.60;2.15;;;27.90;73.60;;;;;;5062204;28;20210;-80
2022/07/14 11:19:24;;;;;;;5.32;1.50;;;27.10;74.70;;;;;;5076464;28;20649;-80
2022/07/14 11:22:23;;;;;;;4.00;1.48;;;27.70;74.20;;;;;;5079799;28;20689;-78
2022/07/14 11:24:54;;;;;;;4.38;1.48;;;27.00;74.30;;;;;;5023809;28;20204;-77
2022/07/14 11:27:38;;;;;;;5.40;1.60;;;27.30;74.60;;;;;;5075396;28;20554;-79
2022/07/14 11:30:33;;;;;;;3.30;1.42;;;27.80;73.80;;;;;;5079797;28;20537;-79
2022/07/14 11:33:03;;;;;;;5.18;1.70;;;28.40;73.20;;;;;;5053603;28;20246;-79
2022/07/14 11:36:20;;;;;;;7.13;2.05;;;28.90;70.80;;;;;;5074422;28;20284;-79
2022/07/14 11:38:46;;;;;;;5.07;1.58;;;28.20;72.60;;;;;;5033795;28;20659;-80
2022/07/14 11:41:13;;;;;;;4.25;1.80;;;28.50;72.40;;;;;;5074931;28;20179;-79
2022/07/14 11:43:42;;;;;;;3.90;1.50;;;28.00;73.60;;;;;;5074252;28;20653;-79
2022/07/14 11:46:14;;;;;;;4.13;1.30;;;28.60;71.60;;;;;;5072921;28;20189;-79
2022/07/14 11:48:51;;;;;;;3.47;1.60;;;28.60;71.70;;;;;;5072682;28;20273;-82
2022/07/14 11:51:21;;;;;;;4.32;1.45;;;28.20;72.10;;;;;;5073258;28;20180;-79
2022/07/14 11:53:53;;;;;;;7.20;1.75;;;27.30;72.90;;;;;;5067615;28;20212;-79
2022/07/14 11:56:23;;;;;;;6.03;1.50;;;26.70;73.70;;;;;;5061373;28;20164;-78
2022/07/14 11:58:50;;;;;;;5.05;1.42;;;27.10;72.40;;;;;;5063878;28;20603;-79
2022/07/14 12:01:16;;;;;;;6.15;1.60;;;27.50;73.00;;;;;;5061862;28;20679;-78
2022/07/14 12:03:41;;;;;;;2.97;1.17;;;27.90;70.20;;;;;;5069734;23;20225;-83
2022/07/14 12:06:07;;;;;;;5.95;1.30;;;27.40;70.90;;;;;;5044356;28;20173;-83
2022/07/14 12:08:39;;;;;;;5.30;1.40;;;27.10;72.00;;;;;;5043665;28;20260;-82
2022/07/14 12:11:11;;;;;;;7.00;1.20;;;26.90;71.00;;;;;;5042296;28;20212;-82
2022/07/14 12:13:53;;;;;;;1.02;0.90;;;27.40;71.40;;;;;;5040723;28;20589;-82
2022/07/14 12:16:20;;;;;;;5.82;1.10;;;27.50;71.30;;;;;;5082626;22;20220;-79
2022/07/14 12:18:46;;;;;;;5.45;1.40;;;27.20;71.00;;;;;;5083100;28;20647;-79
2022/07/14 12:21:14;;;;;;;2.70;1.00;;;26.80;71.70;;;;;;5076202;28;20173;-79
2022/07/14 12:23:54;;;;;;;2.03;1.05;;;26.60;73.30;;;;;;5061520;28;20248;-79
2022/07/14 12:26:22;;;;;;;3.83;1.33;;;26.60;71.60;;;;;;5052904;28;20169;-79
2022/07/14 12:28:52;;;;;;;5.00;1.00;;;26.10;71.70;;;;;;5053097;28;20173;-80
2022/07/14 12:31:19;;;;;;;4.38;1.30;;;26.50;70.40;;;;;;5052173;28;20173;-79
2022/07/14 12:33:46;;;;;;;2.92;1.02;;;26.70;70.40;;;;;;5053825;28;20280;-80
2022/07/14 12:36:19;;;;;;;2.50;1.10;;;26.80;71.20;;;;;;5052881;28;20180;-79
2022/07/14 12:38:46;;;;;;;2.40;0.98;;;26.70;71.70;;;;;;5052655;28;20174;-79
2022/07/14 12:41:14;;;;;;;1.95;1.00;;;26.40;70.00;;;;;;5052581;28;20183;-79
2022/07/14 12:43:42;;;;;;;4.57;1.13;;;26.60;68.80;;;;;;5053518;28;20197;-79
2022/07/14 12:46:16;;;;;;;3.55;1.10;;;26.30;69.60;;;;;;5052600;28;20368;-79
2022/07/14 12:48:48;;;;;;;5.35;1.45;;;26.50;70.30;;;;;;5053009;28;20544;-77
2022/07/14 12:51:18;;;;;;;4.72;1.30;;;26.20;72.20;;;;;;5052472;28;20177;-78
2022/07/14 12:53:59;;;;;;;9.40;1.08;;;26.50;72.50;;;;;;5052911;28;20193;-78
2022/07/14 12:56:26;;;;;;;7.38;1.13;;;26.10;72.20;;;;;;5052114;28;20176;-77